Terminal Aerodrome Forecast
Issued by NWS Cleveland, OH

Home | Current Version | Previous Version | Text Only | Print | Product List | Glossary On
Versions: 1 2 3 4 5 6 7 8 9 10 11 12 13 14 15 16 17 18 19 20 21 22 23 24 25 26 27 28 29 30 31 32 33 34 35 36
000
FTUS41 KCLE 280400 AAB
TAFCLE
TAF AMD
KCLE 280435Z 2805/2906 31009KT 6SM -SHSN SCT015 OVC035
      TEMPO 2805/2808 4SM -SHSN OVC015
     FM280800 29007KT P6SM -SHSN SCT015 OVC025
      TEMPO 2808/2812 5SM -SHSN
     FM281500 23008KT P6SM BKN045 OVC080
     FM290200 18010KT P6SM SCT045 OVC120=

USA.gov is the U.S. government's official web portal to all federal, state and local government web resources and services.